sensor_id;sensor_type;location;lat;lon;timestamp;P1;durP1;ratioP1;P2;durP2;ratioP2
54937;SDS011;52756;52.826;6.214;2022-11-20T00:01:26;12.90;;;8.43;;
54937;SDS011;52756;52.826;6.214;2022-11-20T00:03:53;12.70;;;8.60;;
54937;SDS011;52756;52.826;6.214;2022-11-20T00:06:20;13.33;;;8.67;;
54937;SDS011;52756;52.826;6.214;2022-11-20T00:08:47;12.97;;;9.00;;
54937;SDS011;52756;52.826;6.214;2022-11-20T00:11:13;13.30;;;8.93;;
54937;SDS011;52756;52.826;6.214;2022-11-20T00:13:47;14.40;;;9.77;;
54937;SDS011;52756;52.826;6.214;2022-11-20T00:16:15;13.60;;;8.57;;
54937;SDS011;52756;52.826;6.214;2022-11-20T00:18:42;14.40;;;9.33;;
54937;SDS011;52756;52.826;6.214;2022-11-20T00:21:13;14.03;;;9.73;;
54937;SDS011;52756;52.826;6.214;2022-11-20T00:23:40;15.83;;;9.67;;
54937;SDS011;52756;52.826;6.214;2022-11-20T00:26:08;18.60;;;13.40;;
54937;SDS011;52756;52.826;6.214;2022-11-20T00:28:35;15.00;;;10.47;;
54937;SDS011;52756;52.826;6.214;2022-11-20T00:33:54;18.53;;;10.17;;
54937;SDS011;52756;52.826;6.214;2022-11-20T00:36:20;13.27;;;8.53;;
54937;SDS011;52756;52.826;6.214;2022-11-20T00:38:51;12.57;;;8.17;;
54937;SDS011;52756;52.826;6.214;2022-11-20T00:41:21;17.47;;;10.97;;
54937;SDS011;52756;52.826;6.214;2022-11-20T00:43:47;12.27;;;9.00;;
54937;SDS011;52756;52.826;6.214;2022-11-20T00:46:15;13.60;;;9.60;;
54937;SDS011;52756;52.826;6.214;2022-11-20T00:48:42;15.07;;;9.43;;
54937;SDS011;52756;52.826;6.214;2022-11-20T00:51:09;12.40;;;9.07;;
54937;SDS011;52756;52.826;6.214;2022-11-20T00:53:37;13.90;;;9.10;;
54937;SDS011;52756;52.826;6.214;2022-11-20T00:56:04;13.17;;;9.40;;
54937;SDS011;52756;52.826;6.214;2022-11-20T00:58:32;12.37;;;8.53;;
54937;SDS011;52756;52.826;6.214;2022-11-20T01:01:07;15.27;;;9.80;;
54937;SDS011;52756;52.826;6.214;2022-11-20T01:03:34;13.30;;;9.77;;
54937;SDS011;52756;52.826;6.214;2022-11-20T01:06:06;13.37;;;9.03;;
54937;SDS011;52756;52.826;6.214;2022-11-20T01:08:35;11.80;;;8.47;;
54937;SDS011;52756;52.826;6.214;2022-11-20T01:11:06;12.87;;;8.60;;
54937;SDS011;52756;52.826;6.214;2022-11-20T01:13:36;12.52;;;8.45;;
54937;SDS011;52756;52.826;6.214;2022-11-20T01:16:06;13.60;;;9.23;;
54937;SDS011;52756;52.826;6.214;2022-11-20T01:18:36;13.37;;;8.53;;
54937;SDS011;52756;52.826;6.214;2022-11-20T01:21:15;13.60;;;9.73;;
54937;SDS011;52756;52.826;6.214;2022-11-20T01:23:45;12.83;;;8.83;;
54937;SDS011;52756;52.826;6.214;2022-11-20T01:26:13;12.23;;;8.63;;
54937;SDS011;52756;52.826;6.214;2022-11-20T01:28:50;13.20;;;8.10;;
54937;SDS011;52756;52.826;6.214;2022-11-20T01:31:20;12.70;;;9.03;;
54937;SDS011;52756;52.826;6.214;2022-11-20T01:33:52;12.63;;;8.83;;
54937;SDS011;52756;52.826;6.214;2022-11-20T01:36:20;13.23;;;9.33;;
54937;SDS011;52756;52.826;6.214;2022-11-20T01:38:47;14.67;;;9.80;;
54937;SDS011;52756;52.826;6.214;2022-11-20T01:41:15;12.83;;;8.93;;
54937;SDS011;52756;52.826;6.214;2022-11-20T01:44:00;14.40;;;8.82;;
54937;SDS011;52756;52.826;6.214;2022-11-20T01:46:27;15.33;;;10.20;;
54937;SDS011;52756;52.826;6.214;2022-11-20T01:53:56;12.57;;;8.60;;
54937;SDS011;52756;52.826;6.214;2022-11-20T01:56:25;13.00;;;9.33;;
54937;SDS011;52756;52.826;6.214;2022-11-20T01:58:54;14.33;;;8.80;;
54937;SDS011;52756;52.826;6.214;2022-11-20T02:01:23;14.53;;;9.97;;
54937;SDS011;52756;52.826;6.214;2022-11-20T02:03:49;15.50;;;9.57;;
54937;SDS011;52756;52.826;6.214;2022-11-20T02:08:47;13.10;;;9.43;;
54937;SDS011;52756;52.826;6.214;2022-11-20T02:11:13;13.73;;;9.43;;
54937;SDS011;52756;52.826;6.214;2022-11-20T02:13:39;13.13;;;9.07;;
54937;SDS011;52756;52.826;6.214;2022-11-20T02:16:12;10.60;;;8.20;;
54937;SDS011;52756;52.826;6.214;2022-11-20T02:18:41;12.37;;;8.30;;
54937;SDS011;52756;52.826;6.214;2022-11-20T02:21:18;12.27;;;8.63;;
54937;SDS011;52756;52.826;6.214;2022-11-20T02:24:06;12.87;;;8.47;;
54937;SDS011;52756;52.826;6.214;2022-11-20T02:29:37;14.50;;;10.30;;
54937;SDS011;52756;52.826;6.214;2022-11-20T02:32:06;12.33;;;9.43;;
54937;SDS011;52756;52.826;6.214;2022-11-20T02:34:42;14.53;;;9.00;;
54937;SDS011;52756;52.826;6.214;2022-11-20T02:37:07;12.47;;;8.47;;
54937;SDS011;52756;52.826;6.214;2022-11-20T02:39:33;12.53;;;8.80;;
54937;SDS011;52756;52.826;6.214;2022-11-20T02:42:00;15.30;;;9.50;;
54937;SDS011;52756;52.826;6.214;2022-11-20T02:44:26;15.27;;;10.93;;
54937;SDS011;52756;52.826;6.214;2022-11-20T02:46:51;15.00;;;10.63;;
54937;SDS011;52756;52.826;6.214;2022-11-20T02:49:17;14.50;;;9.43;;
54937;SDS011;52756;52.826;6.214;2022-11-20T02:51:43;12.90;;;9.10;;
54937;SDS011;52756;52.826;6.214;2022-11-20T02:54:08;12.93;;;9.17;;
54937;SDS011;52756;52.826;6.214;2022-11-20T02:56:34;12.37;;;9.00;;
54937;SDS011;52756;52.826;6.214;2022-11-20T02:59:02;12.70;;;9.10;;
54937;SDS011;52756;52.826;6.214;2022-11-20T03:01:28;13.50;;;9.77;;
54937;SDS011;52756;52.826;6.214;2022-11-20T03:03:53;13.70;;;8.73;;
54937;SDS011;52756;52.826;6.214;2022-11-20T03:06:19;14.53;;;9.97;;
54937;SDS011;52756;52.826;6.214;2022-11-20T03:08:45;12.93;;;8.70;;
54937;SDS011;52756;52.826;6.214;2022-11-20T03:11:11;11.80;;;8.33;;
54937;SDS011;52756;52.826;6.214;2022-11-20T03:13:36;10.97;;;8.30;;
54937;SDS011;52756;52.826;6.214;2022-11-20T03:16:09;12.70;;;8.90;;
54937;SDS011;52756;52.826;6.214;2022-11-20T03:18:40;12.33;;;9.17;;
54937;SDS011;52756;52.826;6.214;2022-11-20T03:21:07;13.33;;;8.70;;
54937;SDS011;52756;52.826;6.214;2022-11-20T03:23:34;11.73;;;9.00;;
54937;SDS011;52756;52.826;6.214;2022-11-20T03:26:19;12.67;;;8.67;;
54937;SDS011;52756;52.826;6.214;2022-11-20T03:28:49;15.07;;;9.97;;
54937;SDS011;52756;52.826;6.214;2022-11-20T03:31:21;13.00;;;8.70;;
54937;SDS011;52756;52.826;6.214;2022-11-20T03:33:49;12.93;;;9.73;;
54937;SDS011;52756;52.826;6.214;2022-11-20T03:36:15;12.47;;;8.87;;
54937;SDS011;52756;52.826;6.214;2022-11-20T03:38:42;15.00;;;10.37;;
54937;SDS011;52756;52.826;6.214;2022-11-20T03:41:09;14.93;;;9.57;;
54937;SDS011;52756;52.826;6.214;2022-11-20T03:43:39;14.03;;;9.23;;
54937;SDS011;52756;52.826;6.214;2022-11-20T03:46:05;12.33;;;8.67;;
54937;SDS011;52756;52.826;6.214;2022-11-20T03:48:32;13.43;;;9.00;;
54937;SDS011;52756;52.826;6.214;2022-11-20T03:51:08;12.63;;;9.30;;
54937;SDS011;52756;52.826;6.214;2022-11-20T03:53:35;14.17;;;9.60;;
54937;SDS011;52756;52.826;6.214;2022-11-20T03:56:00;15.13;;;10.20;;
54937;SDS011;52756;52.826;6.214;2022-11-20T03:58:26;12.97;;;9.33;;
54937;SDS011;52756;52.826;6.214;2022-11-20T04:00:52;13.87;;;9.70;;
54937;SDS011;52756;52.826;6.214;2022-11-20T04:03:17;13.83;;;10.03;;
54937;SDS011;52756;52.826;6.214;2022-11-20T04:05:43;13.07;;;9.17;;
54937;SDS011;52756;52.826;6.214;2022-11-20T04:08:09;14.73;;;9.07;;
54937;SDS011;52756;52.826;6.214;2022-11-20T04:10:34;13.53;;;9.20;;
54937;SDS011;52756;52.826;6.214;2022-11-20T04:13:00;15.17;;;9.27;;
54937;SDS011;52756;52.826;6.214;2022-11-20T04:15:26;13.57;;;9.70;;
54937;SDS011;52756;52.826;6.214;2022-11-20T04:17:51;13.23;;;9.17;;
54937;SDS011;52756;52.826;6.214;2022-11-20T04:20:18;11.10;;;8.60;;
54937;SDS011;52756;52.826;6.214;2022-11-20T04:22:44;13.10;;;9.47;;
54937;SDS011;52756;52.826;6.214;2022-11-20T04:25:10;14.43;;;9.60;;
54937;SDS011;52756;52.826;6.214;2022-11-20T04:27:36;12.07;;;8.80;;
54937;SDS011;52756;52.826;6.214;2022-11-20T04:30:01;13.70;;;9.27;;
54937;SDS011;52756;52.826;6.214;2022-11-20T04:32:27;12.57;;;9.17;;
54937;SDS011;52756;52.826;6.214;2022-11-20T04:34:53;12.53;;;9.60;;
54937;SDS011;52756;52.826;6.214;2022-11-20T04:37:18;12.40;;;9.07;;
54937;SDS011;52756;52.826;6.214;2022-11-20T04:39:44;12.30;;;9.30;;
54937;SDS011;52756;52.826;6.214;2022-11-20T04:42:10;13.17;;;8.77;;
54937;SDS011;52756;52.826;6.214;2022-11-20T04:44:54;13.13;;;8.75;;
54937;SDS011;52756;52.826;6.214;2022-11-20T04:47:20;14.13;;;9.43;;
54937;SDS011;52756;52.826;6.214;2022-11-20T04:49:46;15.77;;;10.57;;
54937;SDS011;52756;52.826;6.214;2022-11-20T04:52:12;15.63;;;10.20;;
54937;SDS011;52756;52.826;6.214;2022-11-20T04:54:38;13.20;;;9.60;;
54937;SDS011;52756;52.826;6.214;2022-11-20T04:57:04;10.87;;;8.23;;
54937;SDS011;52756;52.826;6.214;2022-11-20T04:59:29;12.00;;;9.10;;
54937;SDS011;52756;52.826;6.214;2022-11-20T05:01:55;12.40;;;9.07;;
54937;SDS011;52756;52.826;6.214;2022-11-20T05:04:21;13.50;;;9.60;;
54937;SDS011;52756;52.826;6.214;2022-11-20T05:06:46;13.27;;;9.87;;
54937;SDS011;52756;52.826;6.214;2022-11-20T05:09:12;15.00;;;9.33;;
54937;SDS011;52756;52.826;6.214;2022-11-20T05:11:38;12.70;;;9.33;;
54937;SDS011;52756;52.826;6.214;2022-11-20T05:14:04;13.33;;;9.60;;
54937;SDS011;52756;52.826;6.214;2022-11-20T05:16:29;12.97;;;9.07;;
54937;SDS011;52756;52.826;6.214;2022-11-20T05:18:55;12.97;;;9.90;;
54937;SDS011;52756;52.826;6.214;2022-11-20T05:21:22;15.63;;;10.47;;
54937;SDS011;52756;52.826;6.214;2022-11-20T05:23:48;12.20;;;9.80;;
54937;SDS011;52756;52.826;6.214;2022-11-20T05:26:15;13.77;;;9.53;;
54937;SDS011;52756;52.826;6.214;2022-11-20T05:28:46;12.90;;;8.73;;
54937;SDS011;52756;52.826;6.214;2022-11-20T05:31:13;13.50;;;9.67;;
54937;SDS011;52756;52.826;6.214;2022-11-20T05:33:41;12.67;;;8.97;;
54937;SDS011;52756;52.826;6.214;2022-11-20T05:36:09;14.37;;;9.97;;
54937;SDS011;52756;52.826;6.214;2022-11-20T05:38:35;16.80;;;10.30;;
54937;SDS011;52756;52.826;6.214;2022-11-20T05:43:32;13.53;;;9.13;;
54937;SDS011;52756;52.826;6.214;2022-11-20T05:45:59;14.37;;;9.33;;
54937;SDS011;52756;52.826;6.214;2022-11-20T05:48:25;12.67;;;9.33;;
54937;SDS011;52756;52.826;6.214;2022-11-20T05:50:51;14.63;;;10.17;;
54937;SDS011;52756;52.826;6.214;2022-11-20T05:53:16;13.60;;;9.40;;
54937;SDS011;52756;52.826;6.214;2022-11-20T05:55:42;14.37;;;10.00;;
54937;SDS011;52756;52.826;6.214;2022-11-20T05:58:07;15.07;;;10.23;;
54937;SDS011;52756;52.826;6.214;2022-11-20T06:00:33;17.70;;;10.83;;
54937;SDS011;52756;52.826;6.214;2022-11-20T06:02:59;13.77;;;9.70;;
54937;SDS011;52756;52.826;6.214;2022-11-20T06:05:24;16.10;;;10.33;;
54937;SDS011;52756;52.826;6.214;2022-11-20T06:07:50;12.63;;;8.90;;
54937;SDS011;52756;52.826;6.214;2022-11-20T06:10:16;14.50;;;10.10;;
54937;SDS011;52756;52.826;6.214;2022-11-20T06:12:41;12.87;;;9.10;;
54937;SDS011;52756;52.826;6.214;2022-11-20T06:15:07;15.33;;;10.03;;
54937;SDS011;52756;52.826;6.214;2022-11-20T06:17:33;14.00;;;9.50;;
54937;SDS011;52756;52.826;6.214;2022-11-20T06:19:59;14.70;;;10.07;;
54937;SDS011;52756;52.826;6.214;2022-11-20T06:22:24;16.23;;;10.10;;
54937;SDS011;52756;52.826;6.214;2022-11-20T06:24:50;12.87;;;8.97;;
54937;SDS011;52756;52.826;6.214;2022-11-20T06:27:16;12.53;;;9.20;;
54937;SDS011;52756;52.826;6.214;2022-11-20T06:29:42;14.13;;;10.40;;
54937;SDS011;52756;52.826;6.214;2022-11-20T06:32:08;13.83;;;9.80;;
54937;SDS011;52756;52.826;6.214;2022-11-20T06:34:34;17.53;;;11.03;;
54937;SDS011;52756;52.826;6.214;2022-11-20T06:37:00;15.83;;;11.00;;
54937;SDS011;52756;52.826;6.214;2022-11-20T06:39:25;15.33;;;10.60;;
54937;SDS011;52756;52.826;6.214;2022-11-20T06:41:51;14.67;;;10.50;;
54937;SDS011;52756;52.826;6.214;2022-11-20T06:44:16;15.47;;;11.43;;
54937;SDS011;52756;52.826;6.214;2022-11-20T06:46:42;15.13;;;10.37;;
54937;SDS011;52756;52.826;6.214;2022-11-20T06:49:08;17.20;;;11.13;;
54937;SDS011;52756;52.826;6.214;2022-11-20T06:51:33;14.73;;;11.37;;
54937;SDS011;52756;52.826;6.214;2022-11-20T06:53:59;15.20;;;10.43;;
54937;SDS011;52756;52.826;6.214;2022-11-20T06:56:26;16.73;;;12.27;;
54937;SDS011;52756;52.826;6.214;2022-11-20T06:58:51;17.53;;;11.17;;
54937;SDS011;52756;52.826;6.214;2022-11-20T07:01:17;17.43;;;11.73;;
54937;SDS011;52756;52.826;6.214;2022-11-20T07:03:43;15.83;;;11.17;;
54937;SDS011;52756;52.826;6.214;2022-11-20T07:06:09;15.50;;;10.77;;
54937;SDS011;52756;52.826;6.214;2022-11-20T07:08:34;14.93;;;10.40;;
54937;SDS011;52756;52.826;6.214;2022-11-20T07:11:01;16.63;;;10.37;;
54937;SDS011;52756;52.826;6.214;2022-11-20T07:13:28;13.40;;;9.43;;
54937;SDS011;52756;52.826;6.214;2022-11-20T07:15:54;17.17;;;11.20;;
54937;SDS011;52756;52.826;6.214;2022-11-20T07:18:23;15.80;;;11.10;;
54937;SDS011;52756;52.826;6.214;2022-11-20T07:20:49;14.87;;;10.47;;
54937;SDS011;52756;52.826;6.214;2022-11-20T07:23:15;17.40;;;10.97;;
54937;SDS011;52756;52.826;6.214;2022-11-20T07:25:40;16.57;;;10.43;;
54937;SDS011;52756;52.826;6.214;2022-11-20T07:28:06;14.83;;;10.43;;
54937;SDS011;52756;52.826;6.214;2022-11-20T07:30:32;16.93;;;11.17;;
54937;SDS011;52756;52.826;6.214;2022-11-20T07:32:57;14.03;;;9.70;;
54937;SDS011;52756;52.826;6.214;2022-11-20T07:35:23;15.33;;;9.73;;
54937;SDS011;52756;52.826;6.214;2022-11-20T07:37:50;14.83;;;10.30;;
54937;SDS011;52756;52.826;6.214;2022-11-20T07:40:16;16.50;;;10.90;;
54937;SDS011;52756;52.826;6.214;2022-11-20T07:42:48;14.20;;;10.07;;
54937;SDS011;52756;52.826;6.214;2022-11-20T07:45:18;16.47;;;10.37;;
54937;SDS011;52756;52.826;6.214;2022-11-20T07:47:45;14.80;;;9.87;;
54937;SDS011;52756;52.826;6.214;2022-11-20T07:50:11;14.30;;;9.67;;
54937;SDS011;52756;52.826;6.214;2022-11-20T07:52:38;13.43;;;9.97;;
54937;SDS011;52756;52.826;6.214;2022-11-20T07:55:04;14.20;;;10.60;;
54937;SDS011;52756;52.826;6.214;2022-11-20T07:57:31;13.23;;;9.67;;
54937;SDS011;52756;52.826;6.214;2022-11-20T07:59:56;15.53;;;11.20;;
54937;SDS011;52756;52.826;6.214;2022-11-20T08:02:22;14.83;;;10.33;;
54937;SDS011;52756;52.826;6.214;2022-11-20T08:04:48;15.60;;;11.00;;
54937;SDS011;52756;52.826;6.214;2022-11-20T08:07:14;13.90;;;9.67;;
54937;SDS011;52756;52.826;6.214;2022-11-20T08:09:39;14.90;;;10.33;;
54937;SDS011;52756;52.826;6.214;2022-11-20T08:12:05;15.50;;;11.37;;
54937;SDS011;52756;52.826;6.214;2022-11-20T08:14:49;15.00;;;10.02;;
54937;SDS011;52756;52.826;6.214;2022-11-20T08:17:15;16.23;;;10.57;;
54937;SDS011;52756;52.826;6.214;2022-11-20T08:19:41;13.67;;;10.20;;
54937;SDS011;52756;52.826;6.214;2022-11-20T08:22:06;15.50;;;11.37;;
54937;SDS011;52756;52.826;6.214;2022-11-20T08:24:32;16.80;;;11.40;;
54937;SDS011;52756;52.826;6.214;2022-11-20T08:26:58;15.73;;;10.13;;
54937;SDS011;52756;52.826;6.214;2022-11-20T08:29:24;16.60;;;10.90;;
54937;SDS011;52756;52.826;6.214;2022-11-20T08:31:53;19.47;;;12.47;;
54937;SDS011;52756;52.826;6.214;2022-11-20T08:34:18;17.07;;;11.07;;
54937;SDS011;52756;52.826;6.214;2022-11-20T08:36:44;16.73;;;11.27;;
54937;SDS011;52756;52.826;6.214;2022-11-20T08:39:13;16.77;;;10.90;;
54937;SDS011;52756;52.826;6.214;2022-11-20T08:41:39;17.30;;;11.47;;
54937;SDS011;52756;52.826;6.214;2022-11-20T08:44:05;15.63;;;11.10;;
54937;SDS011;52756;52.826;6.214;2022-11-20T08:46:35;19.37;;;14.47;;
54937;SDS011;52756;52.826;6.214;2022-11-20T08:49:06;19.50;;;13.37;;
54937;SDS011;52756;52.826;6.214;2022-11-20T08:51:34;16.93;;;13.10;;
54937;SDS011;52756;52.826;6.214;2022-11-20T08:54:00;16.00;;;11.60;;
54937;SDS011;52756;52.826;6.214;2022-11-20T08:56:27;16.97;;;11.90;;
54937;SDS011;52756;52.826;6.214;2022-11-20T08:58:53;14.47;;;11.37;;
54937;SDS011;52756;52.826;6.214;2022-11-20T09:01:19;14.47;;;10.33;;
54937;SDS011;52756;52.826;6.214;2022-11-20T09:03:45;15.47;;;10.57;;
54937;SDS011;52756;52.826;6.214;2022-11-20T09:06:11;15.33;;;10.83;;
54937;SDS011;52756;52.826;6.214;2022-11-20T09:08:37;16.27;;;11.23;;
54937;SDS011;52756;52.826;6.214;2022-11-20T09:11:03;15.73;;;11.18;;
54937;SDS011;52756;52.826;6.214;2022-11-20T09:13:29;14.25;;;10.93;;
54937;SDS011;52756;52.826;6.214;2022-11-20T09:15:57;14.48;;;10.18;;
54937;SDS011;52756;52.826;6.214;2022-11-20T09:18:25;16.67;;;10.98;;
54937;SDS011;52756;52.826;6.214;2022-11-20T09:20:55;14.18;;;10.07;;
54937;SDS011;52756;52.826;6.214;2022-11-20T09:23:22;15.13;;;10.65;;
54937;SDS011;52756;52.826;6.214;2022-11-20T09:25:47;15.15;;;10.88;;
54937;SDS011;52756;52.826;6.214;2022-11-20T09:28:13;13.27;;;9.80;;
54937;SDS011;52756;52.826;6.214;2022-11-20T09:30:39;13.20;;;10.55;;
54937;SDS011;52756;52.826;6.214;2022-11-20T09:33:05;14.63;;;10.18;;
54937;SDS011;52756;52.826;6.214;2022-11-20T09:35:31;14.52;;;10.48;;
54937;SDS011;52756;52.826;6.214;2022-11-20T09:37:57;14.98;;;11.15;;
54937;SDS011;52756;52.826;6.214;2022-11-20T09:40:24;15.65;;;11.32;;
54937;SDS011;52756;52.826;6.214;2022-11-20T09:45:37;14.07;;;9.85;;
54937;SDS011;52756;52.826;6.214;2022-11-20T09:51:06;15.48;;;11.55;;
54937;SDS011;52756;52.826;6.214;2022-11-20T09:56:20;14.38;;;11.10;;
54937;SDS011;52756;52.826;6.214;2022-11-20T09:58:54;14.93;;;11.35;;
54937;SDS011;52756;52.826;6.214;2022-11-20T10:01:26;15.33;;;11.20;;
54937;SDS011;52756;52.826;6.214;2022-11-20T10:03:57;13.82;;;10.75;;
54937;SDS011;52756;52.826;6.214;2022-11-20T10:06:28;15.43;;;11.40;;
54937;SDS011;52756;52.826;6.214;2022-11-20T10:20:02;16.55;;;10.07;;
54937;SDS011;52756;52.826;6.214;2022-11-20T10:25:36;13.77;;;10.00;;
54937;SDS011;52756;52.826;6.214;2022-11-20T10:31:12;13.15;;;9.35;;
54937;SDS011;52756;52.826;6.214;2022-11-20T10:36:18;11.77;;;8.43;;
54937;SDS011;52756;52.826;6.214;2022-11-20T10:38:59;11.37;;;8.17;;
54937;SDS011;52756;52.826;6.214;2022-11-20T10:41:31;12.98;;;9.10;;
54937;SDS011;52756;52.826;6.214;2022-11-20T10:44:09;12.33;;;9.30;;
54937;SDS011;52756;52.826;6.214;2022-11-20T10:47:00;15.93;;;9.70;;
54937;SDS011;52756;52.826;6.214;2022-11-20T10:49:28;12.20;;;8.73;;
54937;SDS011;52756;52.826;6.214;2022-11-20T10:52:08;12.30;;;8.93;;
54937;SDS011;52756;52.826;6.214;2022-11-20T11:00:13;11.40;;;8.70;;
54937;SDS011;52756;52.826;6.214;2022-11-20T11:02:49;10.97;;;7.47;;
54937;SDS011;52756;52.826;6.214;2022-11-20T11:05:29;10.27;;;7.33;;
54937;SDS011;52756;52.826;6.214;2022-11-20T11:08:09;10.47;;;8.00;;
54937;SDS011;52756;52.826;6.214;2022-11-20T11:10:41;11.47;;;7.80;;
54937;SDS011;52756;52.826;6.214;2022-11-20T11:13:26;11.20;;;7.83;;
54937;SDS011;52756;52.826;6.214;2022-11-20T11:15:53;14.70;;;7.90;;
54937;SDS011;52756;52.826;6.214;2022-11-20T11:18:26;11.87;;;8.27;;
54937;SDS011;52756;52.826;6.214;2022-11-20T11:20:57;12.02;;;8.13;;
54937;SDS011;52756;52.826;6.214;2022-11-20T11:23:43;9.60;;;7.13;;
54937;SDS011;52756;52.826;6.214;2022-11-20T11:26:19;12.65;;;8.00;;
54937;SDS011;52756;52.826;6.214;2022-11-20T11:31:31;11.73;;;8.48;;
54937;SDS011;52756;52.826;6.214;2022-11-20T11:36:55;10.68;;;7.55;;
54937;SDS011;52756;52.826;6.214;2022-11-20T11:39:22;12.43;;;8.32;;
54937;SDS011;52756;52.826;6.214;2022-11-20T11:41:50;12.10;;;7.90;;
54937;SDS011;52756;52.826;6.214;2022-11-20T11:44:20;11.13;;;8.45;;
54937;SDS011;52756;52.826;6.214;2022-11-20T11:47:15;11.10;;;8.45;;
54937;SDS011;52756;52.826;6.214;2022-11-20T11:49:43;13.67;;;10.23;;
54937;SDS011;52756;52.826;6.214;2022-11-20T11:52:15;12.00;;;7.70;;
54937;SDS011;52756;52.826;6.214;2022-11-20T11:55:00;12.93;;;8.82;;
54937;SDS011;52756;52.826;6.214;2022-11-20T11:57:49;9.77;;;6.93;;
54937;SDS011;52756;52.826;6.214;2022-11-20T12:00:35;10.88;;;7.63;;
54937;SDS011;52756;52.826;6.214;2022-11-20T12:03:08;10.48;;;7.72;;
54937;SDS011;52756;52.826;6.214;2022-11-20T12:05:58;11.70;;;8.27;;
54937;SDS011;52756;52.826;6.214;2022-11-20T12:08:32;12.43;;;8.15;;
54937;SDS011;52756;52.826;6.214;2022-11-20T12:11:15;13.65;;;9.18;;
54937;SDS011;52756;52.826;6.214;2022-11-20T12:16:23;10.50;;;7.28;;
54937;SDS011;52756;52.826;6.214;2022-11-20T12:18:50;10.50;;;7.57;;
54937;SDS011;52756;52.826;6.214;2022-11-20T12:26:30;12.18;;;7.95;;
54937;SDS011;52756;52.826;6.214;2022-11-20T12:29:40;11.75;;;8.15;;
54937;SDS011;52756;52.826;6.214;2022-11-20T12:35:00;10.27;;;7.75;;
54937;SDS011;52756;52.826;6.214;2022-11-20T12:40:09;10.45;;;7.65;;
54937;SDS011;52756;52.826;6.214;2022-11-20T12:43:07;11.20;;;7.20;;
54937;SDS011;52756;52.826;6.214;2022-11-20T12:45:59;11.20;;;8.20;;
54937;SDS011;52756;52.826;6.214;2022-11-20T12:53:48;10.90;;;8.50;;
54937;SDS011;52756;52.826;6.214;2022-11-20T13:09:53;12.25;;;8.50;;
54937;SDS011;52756;52.826;6.214;2022-11-20T13:15:22;13.50;;;8.73;;
54937;SDS011;52756;52.826;6.214;2022-11-20T13:18:01;11.88;;;8.55;;
54937;SDS011;52756;52.826;6.214;2022-11-20T13:20:29;11.57;;;8.48;;
54937;SDS011;52756;52.826;6.214;2022-11-20T13:22:56;12.75;;;8.90;;
54937;SDS011;52756;52.826;6.214;2022-11-20T13:25:38;12.80;;;9.02;;
54937;SDS011;52756;52.826;6.214;2022-11-20T13:30:47;12.30;;;8.93;;
54937;SDS011;52756;52.826;6.214;2022-11-20T13:33:31;11.95;;;8.45;;
54937;SDS011;52756;52.826;6.214;2022-11-20T13:36:03;13.52;;;8.43;;
54937;SDS011;52756;52.826;6.214;2022-11-20T13:38:44;13.90;;;9.38;;
54937;SDS011;52756;52.826;6.214;2022-11-20T13:43:54;10.95;;;8.68;;
54937;SDS011;52756;52.826;6.214;2022-11-20T13:46:43;11.88;;;8.77;;
54937;SDS011;52756;52.826;6.214;2022-11-20T13:52:37;13.07;;;9.00;;
54937;SDS011;52756;52.826;6.214;2022-11-20T14:00:33;14.07;;;10.15;;
54937;SDS011;52756;52.826;6.214;2022-11-20T14:03:18;14.38;;;10.80;;
54937;SDS011;52756;52.826;6.214;2022-11-20T14:05:51;12.77;;;9.90;;
54937;SDS011;52756;52.826;6.214;2022-11-20T14:08:26;14.45;;;11.18;;
54937;SDS011;52756;52.826;6.214;2022-11-20T14:11:05;16.42;;;11.65;;
54937;SDS011;52756;52.826;6.214;2022-11-20T14:13:37;14.23;;;10.05;;
54937;SDS011;52756;52.826;6.214;2022-11-20T14:16:03;14.15;;;10.25;;
54937;SDS011;52756;52.826;6.214;2022-11-20T14:18:28;14.95;;;10.50;;
54937;SDS011;52756;52.826;6.214;2022-11-20T14:20:54;14.43;;;10.50;;
54937;SDS011;52756;52.826;6.214;2022-11-20T14:23:23;15.52;;;11.63;;
54937;SDS011;52756;52.826;6.214;2022-11-20T14:25:53;16.38;;;11.60;;
54937;SDS011;52756;52.826;6.214;2022-11-20T14:28:21;16.40;;;10.63;;
54937;SDS011;52756;52.826;6.214;2022-11-20T14:30:50;15.18;;;11.13;;
54937;SDS011;52756;52.826;6.214;2022-11-20T14:33:17;13.80;;;9.90;;
54937;SDS011;52756;52.826;6.214;2022-11-20T14:35:48;16.42;;;11.77;;
54937;SDS011;52756;52.826;6.214;2022-11-20T14:38:16;17.45;;;12.27;;
54937;SDS011;52756;52.826;6.214;2022-11-20T14:40:44;14.35;;;11.30;;
54937;SDS011;52756;52.826;6.214;2022-11-20T14:43:21;17.48;;;11.93;;
54937;SDS011;52756;52.826;6.214;2022-11-20T14:45:59;15.20;;;11.02;;
54937;SDS011;52756;52.826;6.214;2022-11-20T14:48:35;14.68;;;11.48;;
54937;SDS011;52756;52.826;6.214;2022-11-20T14:51:08;14.13;;;10.73;;
54937;SDS011;52756;52.826;6.214;2022-11-20T14:53:35;14.93;;;11.18;;
54937;SDS011;52756;52.826;6.214;2022-11-20T14:56:01;17.23;;;12.00;;
54937;SDS011;52756;52.826;6.214;2022-11-20T14:58:29;14.68;;;11.05;;
54937;SDS011;52756;52.826;6.214;2022-11-20T15:03:45;15.50;;;11.63;;
54937;SDS011;52756;52.826;6.214;2022-11-20T15:06:11;14.32;;;10.57;;
54937;SDS011;52756;52.826;6.214;2022-11-20T15:08:37;15.52;;;11.38;;
54937;SDS011;52756;52.826;6.214;2022-11-20T15:11:03;14.77;;;11.10;;
54937;SDS011;52756;52.826;6.214;2022-11-20T15:13:45;14.38;;;11.77;;
54937;SDS011;52756;52.826;6.214;2022-11-20T15:16:18;15.67;;;11.60;;
54937;SDS011;52756;52.826;6.214;2022-11-20T15:18:46;16.25;;;11.27;;
54937;SDS011;52756;52.826;6.214;2022-11-20T15:21:13;17.27;;;11.60;;
54937;SDS011;52756;52.826;6.214;2022-11-20T15:23:41;15.52;;;11.90;;
54937;SDS011;52756;52.826;6.214;2022-11-20T15:26:08;14.82;;;11.52;;
54937;SDS011;52756;52.826;6.214;2022-11-20T15:31:02;16.63;;;12.10;;
54937;SDS011;52756;52.826;6.214;2022-11-20T15:33:29;17.27;;;11.77;;
54937;SDS011;52756;52.826;6.214;2022-11-20T15:35:59;15.20;;;11.43;;
54937;SDS011;52756;52.826;6.214;2022-11-20T15:38:24;14.20;;;10.63;;
54937;SDS011;52756;52.826;6.214;2022-11-20T15:40:50;17.23;;;12.80;;
54937;SDS011;52756;52.826;6.214;2022-11-20T15:43:16;17.52;;;11.95;;
54937;SDS011;52756;52.826;6.214;2022-11-20T15:45:46;16.25;;;11.63;;
54937;SDS011;52756;52.826;6.214;2022-11-20T15:48:19;17.10;;;11.73;;
54937;SDS011;52756;52.826;6.214;2022-11-20T15:53:35;14.52;;;10.32;;
54937;SDS011;52756;52.826;6.214;2022-11-20T15:56:02;16.20;;;11.93;;
54937;SDS011;52756;52.826;6.214;2022-11-20T15:58:28;16.85;;;11.82;;
54937;SDS011;52756;52.826;6.214;2022-11-20T16:00:54;17.17;;;11.67;;
54937;SDS011;52756;52.826;6.214;2022-11-20T16:03:19;16.10;;;11.47;;
54937;SDS011;52756;52.826;6.214;2022-11-20T16:05:45;17.42;;;12.23;;
54937;SDS011;52756;52.826;6.214;2022-11-20T16:08:11;19.73;;;13.35;;
54937;SDS011;52756;52.826;6.214;2022-11-20T16:10:38;16.35;;;12.27;;
54937;SDS011;52756;52.826;6.214;2022-11-20T16:13:04;16.10;;;11.60;;
54937;SDS011;52756;52.826;6.214;2022-11-20T16:15:55;17.75;;;12.48;;
54937;SDS011;52756;52.826;6.214;2022-11-20T16:18:23;16.75;;;12.52;;
54937;SDS011;52756;52.826;6.214;2022-11-20T16:20:50;15.07;;;11.70;;
54937;SDS011;52756;52.826;6.214;2022-11-20T16:23:17;16.52;;;13.02;;
54937;SDS011;52756;52.826;6.214;2022-11-20T16:25:44;17.13;;;12.30;;
54937;SDS011;52756;52.826;6.214;2022-11-20T16:28:10;17.10;;;12.48;;
54937;SDS011;52756;52.826;6.214;2022-11-20T16:30:36;15.65;;;12.65;;
54937;SDS011;52756;52.826;6.214;2022-11-20T16:33:02;18.27;;;12.00;;